Accueil
METAR-TAF:

METAR-TAF

Aéroports :

Vanua Lava, Vanuatu

latitude: 13-51-06S, longitude: 167-32-13E, altitude: 2 m

Observation

Le bulletin a été fait il y a 3 heures et 3 minutes, à 18:00 UTC
Vent 2 kt de nord/nord-est
Température 27°C
Humidité 89%
Pression 1010 hPa

METAR: NVSC 241800Z AUTO 02002KT //// // NCD 27/25 Q1010 RMK NIL

Heure: 08:03 (21:03 UTC)

Prévision

Le bulletin a été fait il y a 5 heures et 3 minutes, à 16:00 UTC
Prévision valable du 24 à 18 UTC au 25 à 18 UTC
Vent 3 kt de direction variable
Visibilité 10 km ou plus
Nuages épars à une hauteur de 2000 ft
Evoluant progressivement
du 24 à 21 UTC au 24 à 23 UTC
Vent 5 kt de nord/nord-est

TAF: NVSC 241600Z 2418/2518 VRB03KT 9999 SCT020 BECMG 2421/2423 03005KT

Observations et prévisions météorologiques de plus de 4000 aéroports (messages METAR et TAF).

Les stations disponibles sont représentées par des disques jaunes et rouges sur la carte.

Passer la souris dessus pour voir le nom de la station.

Cliquer dessus pour voir les observations et prévisions météorologiques.

Pour changer de carte: cliquez sur les boutons verts avec une croix noire pour zoomer, sur le bouton vert avec un tiret pour effectuer un zoom arrière, ou sur les flèches vertes pour les cartes adjacentes.


METAR-TAF: